Twin Brooks, South Dakota
Current Conditions -  °F | °C
As of 4:54 PM on Tuesday 27 Jan 2015 (Local Time) from KVVV Reporting Station
Overcast Overcast  
Wind Chill: 24°   Ceiling: 600
Heat Index: 32°   Visibility: 10mi
Dew Point: 30°   Wind: 10mph
Humidity: 93%   Direction: 150°SSE
Pressure: 30"   Gusts: NA
Location:  45.21°N, 96.78°W
Report Text: KVVV 272254Z AUTO 15009KT 10SM OVC006 00/M01 A3000 RMK AO2
Loading
Personal Weather Stations






























Interactive Weather Map New forecast layout! Learn more

10-Day Weather Forecast

Advertisements
Track Severe Weather on mobile